sensor_id;sensor_type;location;lat;lon;timestamp;P1;durP1;ratioP1;P2;durP2;ratioP2
20383;SDS011;46458;50.966;7.002;2022-08-21T00:00:17;14.43;;;10.38;;
20383;SDS011;46458;50.966;7.002;2022-08-21T00:02:50;13.02;;;10.02;;
20383;SDS011;46458;50.966;7.002;2022-08-21T00:05:24;12.25;;;10.02;;
20383;SDS011;46458;50.966;7.002;2022-08-21T00:07:54;12.65;;;9.25;;
20383;SDS011;46458;50.966;7.002;2022-08-21T00:10:24;13.13;;;10.43;;
20383;SDS011;46458;50.966;7.002;2022-08-21T00:12:53;16.45;;;10.75;;
20383;SDS011;46458;50.966;7.002;2022-08-21T00:15:26;13.98;;;9.95;;
20383;SDS011;46458;50.966;7.002;2022-08-21T00:17:57;15.80;;;10.88;;
20383;SDS011;46458;50.966;7.002;2022-08-21T00:20:28;15.30;;;12.52;;
20383;SDS011;46458;50.966;7.002;2022-08-21T00:22:58;17.17;;;11.25;;
20383;SDS011;46458;50.966;7.002;2022-08-21T00:25:27;15.02;;;11.65;;
20383;SDS011;46458;50.966;7.002;2022-08-21T00:27:56;12.30;;;10.57;;
20383;SDS011;46458;50.966;7.002;2022-08-21T00:30:26;13.80;;;10.25;;
20383;SDS011;46458;50.966;7.002;2022-08-21T00:32:55;13.75;;;10.55;;
20383;SDS011;46458;50.966;7.002;2022-08-21T00:35:26;16.13;;;10.75;;
20383;SDS011;46458;50.966;7.002;2022-08-21T00:37:59;13.65;;;11.30;;
20383;SDS011;46458;50.966;7.002;2022-08-21T00:40:30;16.73;;;11.27;;
20383;SDS011;46458;50.966;7.002;2022-08-21T00:43:06;14.93;;;10.43;;
20383;SDS011;46458;50.966;7.002;2022-08-21T00:45:38;13.52;;;10.27;;
20383;SDS011;46458;50.966;7.002;2022-08-21T00:48:07;12.38;;;10.52;;
20383;SDS011;46458;50.966;7.002;2022-08-21T00:50:42;11.98;;;9.93;;
20383;SDS011;46458;50.966;7.002;2022-08-21T00:53:13;11.32;;;9.63;;
20383;SDS011;46458;50.966;7.002;2022-08-21T00:55:43;14.07;;;10.32;;
20383;SDS011;46458;50.966;7.002;2022-08-21T00:58:13;14.95;;;10.65;;
20383;SDS011;46458;50.966;7.002;2022-08-21T01:00:45;10.48;;;9.07;;
20383;SDS011;46458;50.966;7.002;2022-08-21T01:03:16;11.52;;;9.88;;
20383;SDS011;46458;50.966;7.002;2022-08-21T01:05:50;14.00;;;10.32;;
20383;SDS011;46458;50.966;7.002;2022-08-21T01:08:20;12.32;;;9.75;;
20383;SDS011;46458;50.966;7.002;2022-08-21T01:10:50;11.75;;;9.63;;
20383;SDS011;46458;50.966;7.002;2022-08-21T01:13:24;11.15;;;9.00;;
20383;SDS011;46458;50.966;7.002;2022-08-21T01:15:56;11.02;;;8.98;;
20383;SDS011;46458;50.966;7.002;2022-08-21T01:18:28;12.10;;;8.63;;
20383;SDS011;46458;50.966;7.002;2022-08-21T01:21:04;13.27;;;9.00;;
20383;SDS011;46458;50.966;7.002;2022-08-21T01:23:36;12.40;;;8.88;;
20383;SDS011;46458;50.966;7.002;2022-08-21T01:26:07;12.23;;;9.20;;
20383;SDS011;46458;50.966;7.002;2022-08-21T01:28:38;13.07;;;9.07;;
20383;SDS011;46458;50.966;7.002;2022-08-21T01:31:10;12.18;;;8.90;;
20383;SDS011;46458;50.966;7.002;2022-08-21T01:33:41;11.35;;;8.45;;
20383;SDS011;46458;50.966;7.002;2022-08-21T01:36:16;9.80;;;8.70;;
20383;SDS011;46458;50.966;7.002;2022-08-21T01:38:46;11.07;;;8.55;;
20383;SDS011;46458;50.966;7.002;2022-08-21T01:41:15;10.87;;;8.77;;
20383;SDS011;46458;50.966;7.002;2022-08-21T01:43:47;13.37;;;8.93;;
20383;SDS011;46458;50.966;7.002;2022-08-21T01:46:16;15.40;;;9.00;;
20383;SDS011;46458;50.966;7.002;2022-08-21T01:48:45;9.60;;;8.60;;
20383;SDS011;46458;50.966;7.002;2022-08-21T01:51:17;12.55;;;9.48;;
20383;SDS011;46458;50.966;7.002;2022-08-21T01:53:48;11.45;;;9.20;;
20383;SDS011;46458;50.966;7.002;2022-08-21T01:56:17;11.77;;;8.40;;
20383;SDS011;46458;50.966;7.002;2022-08-21T01:58:47;11.00;;;8.50;;
20383;SDS011;46458;50.966;7.002;2022-08-21T02:01:16;9.77;;;8.07;;
20383;SDS011;46458;50.966;7.002;2022-08-21T02:03:45;9.25;;;7.85;;
20383;SDS011;46458;50.966;7.002;2022-08-21T02:06:16;9.68;;;8.02;;
20383;SDS011;46458;50.966;7.002;2022-08-21T02:08:49;13.80;;;8.82;;
20383;SDS011;46458;50.966;7.002;2022-08-21T02:11:18;10.35;;;7.82;;
20383;SDS011;46458;50.966;7.002;2022-08-21T02:13:47;11.32;;;7.78;;
20383;SDS011;46458;50.966;7.002;2022-08-21T02:16:16;10.05;;;7.80;;
20383;SDS011;46458;50.966;7.002;2022-08-21T02:18:46;11.38;;;7.47;;
20383;SDS011;46458;50.966;7.002;2022-08-21T02:21:20;9.55;;;7.15;;
20383;SDS011;46458;50.966;7.002;2022-08-21T02:23:54;9.10;;;7.00;;
20383;SDS011;46458;50.966;7.002;2022-08-21T02:26:25;11.15;;;7.40;;
20383;SDS011;46458;50.966;7.002;2022-08-21T02:28:55;9.38;;;7.18;;
20383;SDS011;46458;50.966;7.002;2022-08-21T02:31:24;12.98;;;7.13;;
20383;SDS011;46458;50.966;7.002;2022-08-21T02:33:53;9.90;;;7.35;;
20383;SDS011;46458;50.966;7.002;2022-08-21T02:36:24;9.65;;;7.15;;
20383;SDS011;46458;50.966;7.002;2022-08-21T02:38:53;9.50;;;7.43;;
20383;SDS011;46458;50.966;7.002;2022-08-21T02:41:23;11.13;;;7.60;;
20383;SDS011;46458;50.966;7.002;2022-08-21T02:43:52;13.65;;;7.60;;
20383;SDS011;46458;50.966;7.002;2022-08-21T02:46:21;11.38;;;7.82;;
20383;SDS011;46458;50.966;7.002;2022-08-21T02:48:49;10.83;;;7.50;;
20383;SDS011;46458;50.966;7.002;2022-08-21T02:51:19;12.13;;;7.07;;
20383;SDS011;46458;50.966;7.002;2022-08-21T02:53:50;11.80;;;7.30;;
20383;SDS011;46458;50.966;7.002;2022-08-21T02:56:20;12.10;;;7.50;;
20383;SDS011;46458;50.966;7.002;2022-08-21T02:58:51;12.33;;;7.50;;
20383;SDS011;46458;50.966;7.002;2022-08-21T03:01:20;8.47;;;7.17;;
20383;SDS011;46458;50.966;7.002;2022-08-21T03:03:50;13.30;;;8.23;;
20383;SDS011;46458;50.966;7.002;2022-08-21T03:06:19;10.73;;;7.87;;
20383;SDS011;46458;50.966;7.002;2022-08-21T03:08:55;10.47;;;7.97;;
20383;SDS011;46458;50.966;7.002;2022-08-21T03:11:24;10.80;;;7.67;;
20383;SDS011;46458;50.966;7.002;2022-08-21T03:13:53;11.70;;;7.93;;
20383;SDS011;46458;50.966;7.002;2022-08-21T03:16:22;11.10;;;7.87;;
20383;SDS011;46458;50.966;7.002;2022-08-21T03:18:52;11.60;;;7.10;;
20383;SDS011;46458;50.966;7.002;2022-08-21T03:21:21;11.27;;;8.17;;
20383;SDS011;46458;50.966;7.002;2022-08-21T03:23:50;12.03;;;7.83;;
20383;SDS011;46458;50.966;7.002;2022-08-21T03:26:23;9.73;;;7.50;;
20383;SDS011;46458;50.966;7.002;2022-08-21T03:28:53;11.70;;;7.97;;
20383;SDS011;46458;50.966;7.002;2022-08-21T03:31:23;11.97;;;7.77;;
20383;SDS011;46458;50.966;7.002;2022-08-21T03:33:54;10.73;;;8.00;;
20383;SDS011;46458;50.966;7.002;2022-08-21T03:36:23;8.63;;;7.07;;
20383;SDS011;46458;50.966;7.002;2022-08-21T03:38:53;13.30;;;6.87;;
20383;SDS011;46458;50.966;7.002;2022-08-21T03:41:24;12.07;;;8.00;;
20383;SDS011;46458;50.966;7.002;2022-08-21T03:43:53;10.73;;;7.03;;
20383;SDS011;46458;50.966;7.002;2022-08-21T03:46:22;10.97;;;7.63;;
20383;SDS011;46458;50.966;7.002;2022-08-21T03:48:51;11.43;;;7.60;;
20383;SDS011;46458;50.966;7.002;2022-08-21T03:51:20;9.73;;;8.07;;
20383;SDS011;46458;50.966;7.002;2022-08-21T03:53:49;12.17;;;7.80;;
20383;SDS011;46458;50.966;7.002;2022-08-21T03:56:19;10.17;;;8.20;;
20383;SDS011;46458;50.966;7.002;2022-08-21T03:58:51;10.33;;;7.57;;
20383;SDS011;46458;50.966;7.002;2022-08-21T04:01:21;11.00;;;7.83;;
20383;SDS011;46458;50.966;7.002;2022-08-21T04:03:49;10.00;;;7.67;;
20383;SDS011;46458;50.966;7.002;2022-08-21T04:06:21;11.07;;;7.67;;
20383;SDS011;46458;50.966;7.002;2022-08-21T04:08:51;12.57;;;8.13;;
20383;SDS011;46458;50.966;7.002;2022-08-21T04:11:22;10.93;;;7.53;;
20383;SDS011;46458;50.966;7.002;2022-08-21T04:13:57;10.43;;;7.10;;
20383;SDS011;46458;50.966;7.002;2022-08-21T04:16:26;11.27;;;7.33;;
20383;SDS011;46458;50.966;7.002;2022-08-21T04:18:56;9.13;;;7.10;;
20383;SDS011;46458;50.966;7.002;2022-08-21T04:21:25;12.43;;;7.60;;
20383;SDS011;46458;50.966;7.002;2022-08-21T04:23:55;10.00;;;7.13;;
20383;SDS011;46458;50.966;7.002;2022-08-21T04:26:24;10.37;;;7.67;;
20383;SDS011;46458;50.966;7.002;2022-08-21T04:28:58;7.57;;;6.73;;
20383;SDS011;46458;50.966;7.002;2022-08-21T04:31:28;10.27;;;7.63;;
20383;SDS011;46458;50.966;7.002;2022-08-21T04:33:57;10.80;;;7.87;;
20383;SDS011;46458;50.966;7.002;2022-08-21T04:36:26;10.03;;;7.40;;
20383;SDS011;46458;50.966;7.002;2022-08-21T04:38:58;13.77;;;8.47;;
20383;SDS011;46458;50.966;7.002;2022-08-21T04:41:27;11.17;;;7.23;;
20383;SDS011;46458;50.966;7.002;2022-08-21T04:43:59;9.43;;;7.50;;
20383;SDS011;46458;50.966;7.002;2022-08-21T04:46:28;11.60;;;7.80;;
20383;SDS011;46458;50.966;7.002;2022-08-21T04:48:57;8.77;;;7.43;;
20383;SDS011;46458;50.966;7.002;2022-08-21T04:51:27;12.50;;;7.83;;
20383;SDS011;46458;50.966;7.002;2022-08-21T04:54:00;11.43;;;8.37;;
20383;SDS011;46458;50.966;7.002;2022-08-21T04:56:35;9.40;;;7.47;;
20383;SDS011;46458;50.966;7.002;2022-08-21T04:59:13;14.50;;;7.77;;
20383;SDS011;46458;50.966;7.002;2022-08-21T05:01:45;11.77;;;7.80;;
20383;SDS011;46458;50.966;7.002;2022-08-21T05:04:15;9.60;;;7.93;;
20383;SDS011;46458;50.966;7.002;2022-08-21T05:06:49;12.70;;;8.97;;
20383;SDS011;46458;50.966;7.002;2022-08-21T05:09:22;13.63;;;8.57;;
20383;SDS011;46458;50.966;7.002;2022-08-21T05:11:52;13.47;;;9.77;;
20383;SDS011;46458;50.966;7.002;2022-08-21T05:14:23;12.10;;;7.83;;
20383;SDS011;46458;50.966;7.002;2022-08-21T05:16:53;12.90;;;8.57;;
20383;SDS011;46458;50.966;7.002;2022-08-21T05:19:22;10.30;;;7.87;;
20383;SDS011;46458;50.966;7.002;2022-08-21T05:21:51;11.83;;;7.80;;
20383;SDS011;46458;50.966;7.002;2022-08-21T05:24:20;10.60;;;8.17;;
20383;SDS011;46458;50.966;7.002;2022-08-21T05:26:50;11.53;;;7.83;;
20383;SDS011;46458;50.966;7.002;2022-08-21T05:29:19;9.50;;;7.67;;
20383;SDS011;46458;50.966;7.002;2022-08-21T05:31:52;9.90;;;8.20;;
20383;SDS011;46458;50.966;7.002;2022-08-21T05:34:22;10.00;;;8.43;;
20383;SDS011;46458;50.966;7.002;2022-08-21T05:36:51;10.03;;;7.87;;
20383;SDS011;46458;50.966;7.002;2022-08-21T05:39:20;11.60;;;8.30;;
20383;SDS011;46458;50.966;7.002;2022-08-21T05:41:49;12.63;;;8.37;;
20383;SDS011;46458;50.966;7.002;2022-08-21T05:44:18;11.07;;;8.53;;
20383;SDS011;46458;50.966;7.002;2022-08-21T05:46:47;11.53;;;8.67;;
20383;SDS011;46458;50.966;7.002;2022-08-21T05:49:19;9.77;;;8.67;;
20383;SDS011;46458;50.966;7.002;2022-08-21T05:51:50;14.40;;;9.43;;
20383;SDS011;46458;50.966;7.002;2022-08-21T05:54:19;13.37;;;8.33;;
20383;SDS011;46458;50.966;7.002;2022-08-21T05:56:48;11.63;;;8.80;;
20383;SDS011;46458;50.966;7.002;2022-08-21T05:59:17;12.67;;;8.87;;
20383;SDS011;46458;50.966;7.002;2022-08-21T06:01:46;9.97;;;8.43;;
20383;SDS011;46458;50.966;7.002;2022-08-21T06:04:21;13.63;;;9.03;;
20383;SDS011;46458;50.966;7.002;2022-08-21T06:06:50;11.17;;;8.33;;
20383;SDS011;46458;50.966;7.002;2022-08-21T06:09:19;15.33;;;8.93;;
20383;SDS011;46458;50.966;7.002;2022-08-21T06:11:48;10.63;;;8.03;;
20383;SDS011;46458;50.966;7.002;2022-08-21T06:14:17;11.30;;;8.43;;
20383;SDS011;46458;50.966;7.002;2022-08-21T06:16:46;11.77;;;7.77;;
20383;SDS011;46458;50.966;7.002;2022-08-21T06:19:15;12.23;;;8.67;;
20383;SDS011;46458;50.966;7.002;2022-08-21T06:21:46;10.17;;;8.20;;
20383;SDS011;46458;50.966;7.002;2022-08-21T06:24:15;11.30;;;9.13;;
20383;SDS011;46458;50.966;7.002;2022-08-21T06:26:44;10.27;;;8.57;;
20383;SDS011;46458;50.966;7.002;2022-08-21T06:29:13;17.33;;;11.53;;
20383;SDS011;46458;50.966;7.002;2022-08-21T06:31:45;11.53;;;9.27;;
20383;SDS011;46458;50.966;7.002;2022-08-21T06:34:15;10.13;;;9.13;;
20383;SDS011;46458;50.966;7.002;2022-08-21T06:36:47;11.07;;;9.23;;
20383;SDS011;46458;50.966;7.002;2022-08-21T06:39:16;12.43;;;9.53;;
20383;SDS011;46458;50.966;7.002;2022-08-21T06:41:45;9.63;;;8.63;;
20383;SDS011;46458;50.966;7.002;2022-08-21T06:44:15;9.77;;;8.10;;
20383;SDS011;46458;50.966;7.002;2022-08-21T06:46:44;10.13;;;8.27;;
20383;SDS011;46458;50.966;7.002;2022-08-21T06:49:13;9.53;;;8.00;;
20383;SDS011;46458;50.966;7.002;2022-08-21T06:51:42;12.70;;;9.37;;
20383;SDS011;46458;50.966;7.002;2022-08-21T06:54:14;11.07;;;8.17;;
20383;SDS011;46458;50.966;7.002;2022-08-21T06:56:45;11.97;;;8.17;;
20383;SDS011;46458;50.966;7.002;2022-08-21T06:59:14;9.47;;;7.73;;
20383;SDS011;46458;50.966;7.002;2022-08-21T07:01:43;11.20;;;7.00;;
20383;SDS011;46458;50.966;7.002;2022-08-21T07:04:15;9.85;;;7.50;;
20383;SDS011;46458;50.966;7.002;2022-08-21T07:06:45;11.53;;;7.10;;
20383;SDS011;46458;50.966;7.002;2022-08-21T07:09:17;9.82;;;7.07;;
20383;SDS011;46458;50.966;7.002;2022-08-21T07:11:46;10.33;;;7.10;;
20383;SDS011;46458;50.966;7.002;2022-08-21T07:14:19;10.60;;;7.50;;
20383;SDS011;46458;50.966;7.002;2022-08-21T07:16:48;12.98;;;7.25;;
20383;SDS011;46458;50.966;7.002;2022-08-21T07:19:17;10.98;;;7.18;;
20383;SDS011;46458;50.966;7.002;2022-08-21T07:21:47;21.17;;;16.45;;
20383;SDS011;46458;50.966;7.002;2022-08-21T07:24:18;20.98;;;15.65;;
20383;SDS011;46458;50.966;7.002;2022-08-21T07:26:47;22.33;;;16.50;;
20383;SDS011;46458;50.966;7.002;2022-08-21T07:29:16;14.73;;;9.25;;
20383;SDS011;46458;50.966;7.002;2022-08-21T07:31:45;11.30;;;8.38;;
20383;SDS011;46458;50.966;7.002;2022-08-21T07:34:14;9.98;;;5.93;;
20383;SDS011;46458;50.966;7.002;2022-08-21T07:36:44;7.82;;;5.32;;
20383;SDS011;46458;50.966;7.002;2022-08-21T07:39:13;10.07;;;5.50;;
20383;SDS011;46458;50.966;7.002;2022-08-21T07:41:44;7.80;;;5.10;;
20383;SDS011;46458;50.966;7.002;2022-08-21T07:44:13;9.05;;;5.10;;
20383;SDS011;46458;50.966;7.002;2022-08-21T07:46:42;9.35;;;4.95;;
20383;SDS011;46458;50.966;7.002;2022-08-21T07:49:12;11.35;;;4.90;;
20383;SDS011;46458;50.966;7.002;2022-08-21T07:51:41;6.15;;;4.60;;
20383;SDS011;46458;50.966;7.002;2022-08-21T07:54:10;8.48;;;4.05;;
20383;SDS011;46458;50.966;7.002;2022-08-21T07:56:38;6.97;;;4.93;;
20383;SDS011;46458;50.966;7.002;2022-08-21T07:59:10;6.78;;;4.43;;
20383;SDS011;46458;50.966;7.002;2022-08-21T08:01:39;6.38;;;4.22;;
20383;SDS011;46458;50.966;7.002;2022-08-21T08:04:15;7.47;;;3.97;;
20383;SDS011;46458;50.966;7.002;2022-08-21T08:06:44;6.93;;;3.50;;
20383;SDS011;46458;50.966;7.002;2022-08-21T08:09:15;6.97;;;4.03;;
20383;SDS011;46458;50.966;7.002;2022-08-21T08:11:47;8.40;;;4.60;;
20383;SDS011;46458;50.966;7.002;2022-08-21T08:14:19;9.38;;;3.25;;
20383;SDS011;46458;50.966;7.002;2022-08-21T08:16:49;6.90;;;3.05;;
20383;SDS011;46458;50.966;7.002;2022-08-21T08:19:18;4.72;;;2.28;;
20383;SDS011;46458;50.966;7.002;2022-08-21T08:21:47;5.90;;;2.40;;
20383;SDS011;46458;50.966;7.002;2022-08-21T08:24:16;5.28;;;2.78;;
20383;SDS011;46458;50.966;7.002;2022-08-21T08:26:45;4.60;;;2.00;;
20383;SDS011;46458;50.966;7.002;2022-08-21T08:29:15;6.88;;;2.63;;
20383;SDS011;46458;50.966;7.002;2022-08-21T08:31:47;5.35;;;1.92;;
20383;SDS011;46458;50.966;7.002;2022-08-21T08:34:15;4.68;;;2.30;;
20383;SDS011;46458;50.966;7.002;2022-08-21T08:36:45;9.68;;;5.22;;
20383;SDS011;46458;50.966;7.002;2022-08-21T08:39:14;12.57;;;6.50;;
20383;SDS011;46458;50.966;7.002;2022-08-21T08:41:43;5.63;;;2.53;;
20383;SDS011;46458;50.966;7.002;2022-08-21T08:44:16;5.90;;;2.45;;
20383;SDS011;46458;50.966;7.002;2022-08-21T08:46:48;7.07;;;2.55;;
20383;SDS011;46458;50.966;7.002;2022-08-21T08:49:19;3.72;;;2.00;;
20383;SDS011;46458;50.966;7.002;2022-08-21T08:51:51;6.55;;;2.35;;
20383;SDS011;46458;50.966;7.002;2022-08-21T08:54:25;8.73;;;2.25;;
20383;SDS011;46458;50.966;7.002;2022-08-21T08:57:00;3.72;;;1.90;;
20383;SDS011;46458;50.966;7.002;2022-08-21T08:59:32;9.27;;;2.38;;
20383;SDS011;46458;50.966;7.002;2022-08-21T09:02:08;5.78;;;1.95;;
20383;SDS011;46458;50.966;7.002;2022-08-21T09:04:40;5.03;;;2.00;;
20383;SDS011;46458;50.966;7.002;2022-08-21T09:07:12;3.53;;;1.77;;
20383;SDS011;46458;50.966;7.002;2022-08-21T09:09:51;5.50;;;1.73;;
20383;SDS011;46458;50.966;7.002;2022-08-21T09:12:30;10.68;;;2.35;;
20383;SDS011;46458;50.966;7.002;2022-08-21T09:15:09;8.15;;;2.20;;
20383;SDS011;46458;50.966;7.002;2022-08-21T09:17:52;7.30;;;3.60;;
20383;SDS011;46458;50.966;7.002;2022-08-21T09:20:33;8.60;;;1.85;;
20383;SDS011;46458;50.966;7.002;2022-08-21T09:23:11;5.50;;;2.25;;
20383;SDS011;46458;50.966;7.002;2022-08-21T09:25:53;5.35;;;2.40;;
20383;SDS011;46458;50.966;7.002;2022-08-21T09:28:27;5.38;;;1.73;;
20383;SDS011;46458;50.966;7.002;2022-08-21T09:31:01;5.63;;;1.88;;
20383;SDS011;46458;50.966;7.002;2022-08-21T09:33:37;7.05;;;2.70;;
20383;SDS011;46458;50.966;7.002;2022-08-21T09:36:06;3.33;;;1.73;;
20383;SDS011;46458;50.966;7.002;2022-08-21T09:38:36;6.05;;;2.45;;
20383;SDS011;46458;50.966;7.002;2022-08-21T09:41:07;7.30;;;2.35;;
20383;SDS011;46458;50.966;7.002;2022-08-21T09:43:37;5.35;;;2.67;;
20383;SDS011;46458;50.966;7.002;2022-08-21T09:46:08;4.63;;;1.92;;
20383;SDS011;46458;50.966;7.002;2022-08-21T09:48:44;5.00;;;2.20;;
20383;SDS011;46458;50.966;7.002;2022-08-21T09:51:15;5.47;;;1.73;;
20383;SDS011;46458;50.966;7.002;2022-08-21T09:53:46;5.13;;;1.80;;
20383;SDS011;46458;50.966;7.002;2022-08-21T09:56:20;7.63;;;2.25;;
20383;SDS011;46458;50.966;7.002;2022-08-21T09:59:14;8.98;;;1.83;;
20383;SDS011;46458;50.966;7.002;2022-08-21T10:01:49;7.90;;;2.17;;
20383;SDS011;46458;50.966;7.002;2022-08-21T10:04:23;5.40;;;1.90;;
20383;SDS011;46458;50.966;7.002;2022-08-21T10:07:05;4.78;;;2.08;;
20383;SDS011;46458;50.966;7.002;2022-08-21T10:09:35;4.60;;;1.92;;
20383;SDS011;46458;50.966;7.002;2022-08-21T10:12:08;6.85;;;2.40;;
20383;SDS011;46458;50.966;7.002;2022-08-21T10:14:46;5.22;;;2.22;;
20383;SDS011;46458;50.966;7.002;2022-08-21T10:17:23;7.53;;;2.42;;
20383;SDS011;46458;50.966;7.002;2022-08-21T10:20:02;3.17;;;1.88;;
20383;SDS011;46458;50.966;7.002;2022-08-21T10:22:37;4.95;;;2.00;;
20383;SDS011;46458;50.966;7.002;2022-08-21T10:25:17;6.22;;;2.13;;
20383;SDS011;46458;50.966;7.002;2022-08-21T10:27:53;6.85;;;1.85;;
20383;SDS011;46458;50.966;7.002;2022-08-21T10:30:33;4.70;;;1.88;;
20383;SDS011;46458;50.966;7.002;2022-08-21T10:33:15;7.20;;;3.45;;
20383;SDS011;46458;50.966;7.002;2022-08-21T10:35:59;5.63;;;2.78;;
20383;SDS011;46458;50.966;7.002;2022-08-21T10:41:38;5.47;;;2.13;;
20383;SDS011;46458;50.966;7.002;2022-08-21T10:44:24;6.68;;;1.98;;
20383;SDS011;46458;50.966;7.002;2022-08-21T10:47:05;4.20;;;1.80;;
20383;SDS011;46458;50.966;7.002;2022-08-21T10:49:39;6.07;;;2.55;;
20383;SDS011;46458;50.966;7.002;2022-08-21T10:52:26;5.55;;;1.92;;
20383;SDS011;46458;50.966;7.002;2022-08-21T10:55:06;7.53;;;2.22;;
20383;SDS011;46458;50.966;7.002;2022-08-21T10:57:40;14.60;;;9.40;;
20383;SDS011;46458;50.966;7.002;2022-08-21T11:00:15;5.35;;;2.70;;
20383;SDS011;46458;50.966;7.002;2022-08-21T11:02:47;8.07;;;2.33;;
20383;SDS011;46458;50.966;7.002;2022-08-21T11:05:24;4.13;;;1.98;;
20383;SDS011;46458;50.966;7.002;2022-08-21T11:08:02;7.22;;;2.22;;
20383;SDS011;46458;50.966;7.002;2022-08-21T11:10:35;3.85;;;1.67;;
20383;SDS011;46458;50.966;7.002;2022-08-21T11:13:11;3.72;;;1.60;;
20383;SDS011;46458;50.966;7.002;2022-08-21T11:15:48;4.88;;;1.60;;
20383;SDS011;46458;50.966;7.002;2022-08-21T11:18:24;3.28;;;1.55;;
20383;SDS011;46458;50.966;7.002;2022-08-21T11:21:01;5.30;;;1.67;;
20383;SDS011;46458;50.966;7.002;2022-08-21T11:23:40;4.82;;;1.73;;
20383;SDS011;46458;50.966;7.002;2022-08-21T11:26:15;5.38;;;1.85;;
20383;SDS011;46458;50.966;7.002;2022-08-21T11:28:52;3.58;;;1.45;;
20383;SDS011;46458;50.966;7.002;2022-08-21T11:31:34;4.68;;;1.83;;
20383;SDS011;46458;50.966;7.002;2022-08-21T11:34:15;3.80;;;1.83;;
20383;SDS011;46458;50.966;7.002;2022-08-21T11:36:51;4.22;;;1.80;;
20383;SDS011;46458;50.966;7.002;2022-08-21T11:39:30;3.20;;;1.70;;
20383;SDS011;46458;50.966;7.002;2022-08-21T11:42:09;5.65;;;1.80;;
20383;SDS011;46458;50.966;7.002;2022-08-21T11:44:49;8.75;;;4.88;;
20383;SDS011;46458;50.966;7.002;2022-08-21T11:47:27;4.75;;;2.20;;
20383;SDS011;46458;50.966;7.002;2022-08-21T11:50:13;4.32;;;1.40;;
20383;SDS011;46458;50.966;7.002;2022-08-21T11:52:43;7.05;;;3.35;;
20383;SDS011;46458;50.966;7.002;2022-08-21T11:55:18;7.78;;;2.58;;
20383;SDS011;46458;50.966;7.002;2022-08-21T11:57:51;4.18;;;1.70;;
20383;SDS011;46458;50.966;7.002;2022-08-21T12:00:25;5.72;;;2.53;;
20383;SDS011;46458;50.966;7.002;2022-08-21T12:02:58;3.17;;;1.85;;
20383;SDS011;46458;50.966;7.002;2022-08-21T12:05:40;6.32;;;1.65;;
20383;SDS011;46458;50.966;7.002;2022-08-21T12:08:13;4.90;;;1.70;;
20383;SDS011;46458;50.966;7.002;2022-08-21T12:11:03;8.27;;;2.50;;
20383;SDS011;46458;50.966;7.002;2022-08-21T12:13:35;4.03;;;1.92;;
20383;SDS011;46458;50.966;7.002;2022-08-21T12:16:06;3.45;;;1.55;;
20383;SDS011;46458;50.966;7.002;2022-08-21T12:18:37;5.68;;;1.60;;
20383;SDS011;46458;50.966;7.002;2022-08-21T12:21:20;4.55;;;1.60;;
20383;SDS011;46458;50.966;7.002;2022-08-21T12:23:59;3.10;;;1.67;;
20383;SDS011;46458;50.966;7.002;2022-08-21T12:26:51;3.95;;;1.50;;
20383;SDS011;46458;50.966;7.002;2022-08-21T12:29:26;3.78;;;1.42;;
20383;SDS011;46458;50.966;7.002;2022-08-21T12:32:01;3.17;;;1.58;;
20383;SDS011;46458;50.966;7.002;2022-08-21T12:34:35;8.32;;;1.40;;
20383;SDS011;46458;50.966;7.002;2022-08-21T12:37:11;4.78;;;1.52;;
20383;SDS011;46458;50.966;7.002;2022-08-21T12:39:49;4.50;;;1.77;;
20383;SDS011;46458;50.966;7.002;2022-08-21T12:42:23;6.18;;;1.85;;
20383;SDS011;46458;50.966;7.002;2022-08-21T12:45:10;4.47;;;1.88;;
20383;SDS011;46458;50.966;7.002;2022-08-21T12:47:45;3.70;;;1.63;;
20383;SDS011;46458;50.966;7.002;2022-08-21T12:50:18;7.90;;;2.25;;
20383;SDS011;46458;50.966;7.002;2022-08-21T12:52:51;5.82;;;1.55;;
20383;SDS011;46458;50.966;7.002;2022-08-21T12:55:27;3.85;;;1.60;;
20383;SDS011;46458;50.966;7.002;2022-08-21T12:58:00;3.97;;;1.90;;
20383;SDS011;46458;50.966;7.002;2022-08-21T13:00:29;3.03;;;1.27;;
20383;SDS011;46458;50.966;7.002;2022-08-21T13:02:58;5.43;;;1.52;;
20383;SDS011;46458;50.966;7.002;2022-08-21T13:05:30;4.32;;;1.45;;
20383;SDS011;46458;50.966;7.002;2022-08-21T13:08:03;3.60;;;1.85;;
20383;SDS011;46458;50.966;7.002;2022-08-21T13:10:33;6.25;;;1.70;;
20383;SDS011;46458;50.966;7.002;2022-08-21T13:13:07;4.40;;;1.58;;
20383;SDS011;46458;50.966;7.002;2022-08-21T13:15:41;4.10;;;1.90;;
20383;SDS011;46458;50.966;7.002;2022-08-21T13:18:18;3.08;;;1.30;;
20383;SDS011;46458;50.966;7.002;2022-08-21T13:20:48;6.28;;;1.63;;
20383;SDS011;46458;50.966;7.002;2022-08-21T13:23:19;4.82;;;1.65;;
20383;SDS011;46458;50.966;7.002;2022-08-21T13:25:51;5.65;;;1.73;;
20383;SDS011;46458;50.966;7.002;2022-08-21T13:28:23;3.53;;;1.50;;
20383;SDS011;46458;50.966;7.002;2022-08-21T13:31:05;5.55;;;1.98;;
20383;SDS011;46458;50.966;7.002;2022-08-21T13:33:36;3.55;;;1.50;;
20383;SDS011;46458;50.966;7.002;2022-08-21T13:36:10;5.93;;;1.50;;
20383;SDS011;46458;50.966;7.002;2022-08-21T13:38:48;5.55;;;1.48;;
20383;SDS011;46458;50.966;7.002;2022-08-21T13:41:20;5.82;;;1.85;;
20383;SDS011;46458;50.966;7.002;2022-08-21T13:43:59;4.97;;;1.73;;
20383;SDS011;46458;50.966;7.002;2022-08-21T13:46:31;2.25;;;1.30;;
20383;SDS011;46458;50.966;7.002;2022-08-21T13:49:07;3.55;;;1.83;;
20383;SDS011;46458;50.966;7.002;2022-08-21T13:51:37;2.67;;;1.52;;
20383;SDS011;46458;50.966;7.002;2022-08-21T13:54:20;5.47;;;1.85;;
20383;SDS011;46458;50.966;7.002;2022-08-21T13:56:52;5.10;;;1.85;;
20383;SDS011;46458;50.966;7.002;2022-08-21T13:59:28;5.32;;;1.50;;
20383;SDS011;46458;50.966;7.002;2022-08-21T14:01:59;3.67;;;1.80;;
20383;SDS011;46458;50.966;7.002;2022-08-21T14:04:35;8.23;;;2.00;;
20383;SDS011;46458;50.966;7.002;2022-08-21T14:07:14;3.67;;;1.55;;
20383;SDS011;46458;50.966;7.002;2022-08-21T14:09:46;5.03;;;1.75;;
20383;SDS011;46458;50.966;7.002;2022-08-21T14:12:19;4.15;;;1.63;;
20383;SDS011;46458;50.966;7.002;2022-08-21T14:14:57;4.13;;;1.25;;
20383;SDS011;46458;50.966;7.002;2022-08-21T14:17:31;4.90;;;1.70;;
20383;SDS011;46458;50.966;7.002;2022-08-21T14:20:04;20.95;;;15.35;;
20383;SDS011;46458;50.966;7.002;2022-08-21T14:22:39;6.13;;;2.70;;
20383;SDS011;46458;50.966;7.002;2022-08-21T14:25:11;4.35;;;2.30;;
20383;SDS011;46458;50.966;7.002;2022-08-21T14:27:43;4.07;;;2.58;;
20383;SDS011;46458;50.966;7.002;2022-08-21T14:30:21;9.15;;;5.45;;
20383;SDS011;46458;50.966;7.002;2022-08-21T14:32:57;3.17;;;1.90;;
20383;SDS011;46458;50.966;7.002;2022-08-21T14:35:27;4.53;;;2.22;;
20383;SDS011;46458;50.966;7.002;2022-08-21T14:37:57;4.35;;;2.17;;
20383;SDS011;46458;50.966;7.002;2022-08-21T14:40:29;3.28;;;1.50;;
20383;SDS011;46458;50.966;7.002;2022-08-21T14:42:58;3.88;;;1.83;;
20383;SDS011;46458;50.966;7.002;2022-08-21T14:45:30;6.15;;;1.90;;
20383;SDS011;46458;50.966;7.002;2022-08-21T14:47:59;6.20;;;1.92;;
20383;SDS011;46458;50.966;7.002;2022-08-21T14:50:28;6.53;;;2.67;;
20383;SDS011;46458;50.966;7.002;2022-08-21T14:52:57;4.93;;;1.65;;
20383;SDS011;46458;50.966;7.002;2022-08-21T14:55:29;3.92;;;2.30;;
20383;SDS011;46458;50.966;7.002;2022-08-21T14:58:19;3.67;;;2.20;;
20383;SDS011;46458;50.966;7.002;2022-08-21T15:00:52;8.30;;;1.90;;
20383;SDS011;46458;50.966;7.002;2022-08-21T15:03:23;18.85;;;15.70;;
20383;SDS011;46458;50.966;7.002;2022-08-21T15:05:53;17.50;;;14.10;;
20383;SDS011;46458;50.966;7.002;2022-08-21T15:08:22;4.47;;;2.40;;
20383;SDS011;46458;50.966;7.002;2022-08-21T15:10:51;5.35;;;2.30;;
20383;SDS011;46458;50.966;7.002;2022-08-21T15:13:20;6.80;;;3.58;;